sensor_id;sensor_type;location;lat;lon;timestamp;P1;durP1;ratioP1;P2;durP2;ratioP2
76117;SDS011;64851;50.232;20.364;2023-12-22T00:00:03;3.00;;;0.90;;
76117;SDS011;64851;50.232;20.364;2023-12-22T00:02:59;4.20;;;1.10;;
76117;SDS011;64851;50.232;20.364;2023-12-22T00:05:47;3.40;;;1.00;;
76117;SDS011;64851;50.232;20.364;2023-12-22T00:08:29;4.10;;;0.90;;
76117;SDS011;64851;50.232;20.364;2023-12-22T00:11:09;2.40;;;0.60;;
76117;SDS011;64851;50.232;20.364;2023-12-22T00:13:51;3.00;;;0.70;;
76117;SDS011;64851;50.232;20.364;2023-12-22T00:16:32;6.10;;;1.20;;
76117;SDS011;64851;50.232;20.364;2023-12-22T00:19:14;6.80;;;1.50;;
76117;SDS011;64851;50.232;20.364;2023-12-22T00:21:56;5.10;;;1.00;;
76117;SDS011;64851;50.232;20.364;2023-12-22T00:24:39;6.20;;;1.20;;
76117;SDS011;64851;50.232;20.364;2023-12-22T00:27:19;3.50;;;1.00;;
76117;SDS011;64851;50.232;20.364;2023-12-22T00:30:07;4.00;;;0.90;;
76117;SDS011;64851;50.232;20.364;2023-12-22T00:33:02;2.20;;;0.70;;
76117;SDS011;64851;50.232;20.364;2023-12-22T00:35:37;3.80;;;1.00;;
76117;SDS011;64851;50.232;20.364;2023-12-22T00:38:32;4.70;;;1.60;;
76117;SDS011;64851;50.232;20.364;2023-12-22T00:41:27;4.40;;;1.10;;
76117;SDS011;64851;50.232;20.364;2023-12-22T00:44:02;2.80;;;0.80;;
76117;SDS011;64851;50.232;20.364;2023-12-22T00:46:52;6.50;;;1.10;;
76117;SDS011;64851;50.232;20.364;2023-12-22T00:49:27;3.50;;;1.10;;
76117;SDS011;64851;50.232;20.364;2023-12-22T00:52:15;4.10;;;0.70;;
76117;SDS011;64851;50.232;20.364;2023-12-22T00:54:50;3.60;;;1.00;;
76117;SDS011;64851;50.232;20.364;2023-12-22T00:57:38;6.70;;;1.10;;
76117;SDS011;64851;50.232;20.364;2023-12-22T01:00:15;3.80;;;1.30;;
76117;SDS011;64851;50.232;20.364;2023-12-22T01:03:10;5.20;;;1.30;;
76117;SDS011;64851;50.232;20.364;2023-12-22T01:06:05;3.60;;;0.90;;
76117;SDS011;64851;50.232;20.364;2023-12-22T01:08:40;5.20;;;0.90;;
76117;SDS011;64851;50.232;20.364;2023-12-22T01:11:30;4.50;;;0.90;;
76117;SDS011;64851;50.232;20.364;2023-12-22T01:14:05;4.00;;;0.90;;
76117;SDS011;64851;50.232;20.364;2023-12-22T01:17:03;6.30;;;1.00;;
76117;SDS011;64851;50.232;20.364;2023-12-22T01:19:58;6.00;;;1.00;;
76117;SDS011;64851;50.232;20.364;2023-12-22T01:22:54;5.00;;;1.20;;
76117;SDS011;64851;50.232;20.364;2023-12-22T01:25:29;8.80;;;1.40;;
76117;SDS011;64851;50.232;20.364;2023-12-22T01:28:17;3.60;;;1.00;;
76117;SDS011;64851;50.232;20.364;2023-12-22T01:31:12;6.00;;;1.00;;
76117;SDS011;64851;50.232;20.364;2023-12-22T01:34:08;3.70;;;1.00;;
76117;SDS011;64851;50.232;20.364;2023-12-22T01:36:44;3.70;;;0.90;;
76117;SDS011;64851;50.232;20.364;2023-12-22T01:39:32;2.60;;;0.50;;
76117;SDS011;64851;50.232;20.364;2023-12-22T01:42:07;2.50;;;0.80;;
76117;SDS011;64851;50.232;20.364;2023-12-22T01:44:56;2.40;;;0.40;;
76117;SDS011;64851;50.232;20.364;2023-12-22T01:47:31;4.60;;;0.70;;
76117;SDS011;64851;50.232;20.364;2023-12-22T01:50:26;3.90;;;0.60;;
76117;SDS011;64851;50.232;20.364;2023-12-22T01:53:21;1.70;;;0.40;;
76117;SDS011;64851;50.232;20.364;2023-12-22T01:55:58;4.60;;;1.00;;
76117;SDS011;64851;50.232;20.364;2023-12-22T01:58:47;3.30;;;0.40;;
76117;SDS011;64851;50.232;20.364;2023-12-22T02:01:23;3.10;;;0.40;;
76117;SDS011;64851;50.232;20.364;2023-12-22T02:04:14;7.00;;;0.60;;
76117;SDS011;64851;50.232;20.364;2023-12-22T02:06:51;3.70;;;0.60;;
76117;SDS011;64851;50.232;20.364;2023-12-22T02:09:39;3.20;;;0.60;;
76117;SDS011;64851;50.232;20.364;2023-12-22T02:12:14;3.60;;;0.80;;
76117;SDS011;64851;50.232;20.364;2023-12-22T02:15:02;3.60;;;0.60;;
76117;SDS011;64851;50.232;20.364;2023-12-22T02:17:52;4.60;;;0.50;;
76117;SDS011;64851;50.232;20.364;2023-12-22T02:20:43;4.30;;;0.70;;
76117;SDS011;64851;50.232;20.364;2023-12-22T02:23:18;2.80;;;0.20;;
76117;SDS011;64851;50.232;20.364;2023-12-22T02:26:10;1.60;;;0.20;;
76117;SDS011;64851;50.232;20.364;2023-12-22T02:28:47;3.40;;;0.40;;
76117;SDS011;64851;50.232;20.364;2023-12-22T02:31:36;2.80;;;0.50;;
76117;SDS011;64851;50.232;20.364;2023-12-22T02:34:13;2.80;;;0.40;;
76117;SDS011;64851;50.232;20.364;2023-12-22T02:37:07;3.60;;;1.00;;
76117;SDS011;64851;50.232;20.364;2023-12-22T02:39:43;5.10;;;0.70;;
76117;SDS011;64851;50.232;20.364;2023-12-22T02:42:31;3.00;;;0.60;;
76117;SDS011;64851;50.232;20.364;2023-12-22T02:45:12;4.90;;;0.90;;
76117;SDS011;64851;50.232;20.364;2023-12-22T02:48:01;2.80;;;0.50;;
76117;SDS011;64851;50.232;20.364;2023-12-22T02:50:36;4.20;;;0.50;;
76117;SDS011;64851;50.232;20.364;2023-12-22T02:53:31;3.80;;;1.10;;
76117;SDS011;64851;50.232;20.364;2023-12-22T02:56:26;5.80;;;1.30;;
76117;SDS011;64851;50.232;20.364;2023-12-22T02:59:02;3.20;;;0.60;;
76117;SDS011;64851;50.232;20.364;2023-12-22T03:01:51;3.40;;;0.80;;
76117;SDS011;64851;50.232;20.364;2023-12-22T03:04:26;2.50;;;0.70;;
76117;SDS011;64851;50.232;20.364;2023-12-22T03:07:14;3.00;;;0.60;;
76117;SDS011;64851;50.232;20.364;2023-12-22T03:09:52;4.00;;;0.50;;
76117;SDS011;64851;50.232;20.364;2023-12-22T03:12:39;3.90;;;0.90;;
76117;SDS011;64851;50.232;20.364;2023-12-22T03:15:14;2.40;;;0.50;;
76117;SDS011;64851;50.232;20.364;2023-12-22T03:18:02;6.60;;;1.00;;
76117;SDS011;64851;50.232;20.364;2023-12-22T03:20:37;3.60;;;0.70;;
76117;SDS011;64851;50.232;20.364;2023-12-22T03:23:26;5.00;;;1.00;;
76117;SDS011;64851;50.232;20.364;2023-12-22T03:26:03;1.90;;;0.50;;
76117;SDS011;64851;50.232;20.364;2023-12-22T03:28:57;1.80;;;0.40;;
76117;SDS011;64851;50.232;20.364;2023-12-22T03:31:52;3.50;;;0.60;;
76117;SDS011;64851;50.232;20.364;2023-12-22T03:34:34;2.70;;;0.40;;
76117;SDS011;64851;50.232;20.364;2023-12-22T03:37:15;4.30;;;1.00;;
76117;SDS011;64851;50.232;20.364;2023-12-22T03:39:57;3.20;;;0.50;;
76117;SDS011;64851;50.232;20.364;2023-12-22T03:42:37;3.50;;;0.60;;
76117;SDS011;64851;50.232;20.364;2023-12-22T03:45:19;8.80;;;1.40;;
76117;SDS011;64851;50.232;20.364;2023-12-22T03:47:59;6.00;;;0.80;;
76117;SDS011;64851;50.232;20.364;2023-12-22T03:50:42;3.60;;;0.90;;
76117;SDS011;64851;50.232;20.364;2023-12-22T03:53:29;3.00;;;0.50;;
76117;SDS011;64851;50.232;20.364;2023-12-22T03:56:11;1.60;;;0.20;;
76117;SDS011;64851;50.232;20.364;2023-12-22T03:58:59;3.60;;;0.50;;
76117;SDS011;64851;50.232;20.364;2023-12-22T04:01:34;3.30;;;0.50;;
76117;SDS011;64851;50.232;20.364;2023-12-22T04:04:21;2.30;;;0.50;;
76117;SDS011;64851;50.232;20.364;2023-12-22T04:06:57;4.70;;;0.70;;
76117;SDS011;64851;50.232;20.364;2023-12-22T04:09:46;3.60;;;1.00;;
76117;SDS011;64851;50.232;20.364;2023-12-22T04:12:28;2.40;;;0.40;;
76117;SDS011;64851;50.232;20.364;2023-12-22T04:15:16;2.40;;;0.30;;
76117;SDS011;64851;50.232;20.364;2023-12-22T04:17:52;3.40;;;0.60;;
76117;SDS011;64851;50.232;20.364;2023-12-22T04:20:39;2.40;;;0.60;;
76117;SDS011;64851;50.232;20.364;2023-12-22T04:23:21;4.20;;;0.70;;
76117;SDS011;64851;50.232;20.364;2023-12-22T04:26:08;3.00;;;0.70;;
76117;SDS011;64851;50.232;20.364;2023-12-22T04:28:44;2.10;;;0.50;;
76117;SDS011;64851;50.232;20.364;2023-12-22T04:31:38;2.50;;;0.50;;
76117;SDS011;64851;50.232;20.364;2023-12-22T04:34:33;4.90;;;1.00;;
76117;SDS011;64851;50.232;20.364;2023-12-22T04:37:08;4.10;;;0.90;;
76117;SDS011;64851;50.232;20.364;2023-12-22T04:39:56;4.00;;;0.60;;
76117;SDS011;64851;50.232;20.364;2023-12-22T04:42:32;3.00;;;0.40;;
76117;SDS011;64851;50.232;20.364;2023-12-22T04:45:27;5.50;;;1.10;;
76117;SDS011;64851;50.232;20.364;2023-12-22T04:48:04;3.20;;;1.00;;
76117;SDS011;64851;50.232;20.364;2023-12-22T04:50:53;7.30;;;1.20;;
76117;SDS011;64851;50.232;20.364;2023-12-22T04:53:29;5.50;;;1.50;;
76117;SDS011;64851;50.232;20.364;2023-12-22T04:56:18;6.00;;;0.80;;
76117;SDS011;64851;50.232;20.364;2023-12-22T04:58:54;7.40;;;0.90;;
76117;SDS011;64851;50.232;20.364;2023-12-22T05:01:42;6.90;;;1.10;;
76117;SDS011;64851;50.232;20.364;2023-12-22T05:04:19;3.10;;;0.40;;
76117;SDS011;64851;50.232;20.364;2023-12-22T05:07:07;4.80;;;0.90;;
76117;SDS011;64851;50.232;20.364;2023-12-22T05:09:43;1.60;;;0.30;;
76117;SDS011;64851;50.232;20.364;2023-12-22T05:12:33;4.80;;;1.00;;
76117;SDS011;64851;50.232;20.364;2023-12-22T05:15:08;4.00;;;0.60;;
76117;SDS011;64851;50.232;20.364;2023-12-22T05:18:03;6.80;;;0.70;;
76117;SDS011;64851;50.232;20.364;2023-12-22T05:20:59;3.90;;;0.50;;
76117;SDS011;64851;50.232;20.364;2023-12-22T05:23:41;2.30;;;0.40;;
76117;SDS011;64851;50.232;20.364;2023-12-22T05:26:28;2.70;;;0.50;;
76117;SDS011;64851;50.232;20.364;2023-12-22T05:29:17;2.20;;;0.60;;
76117;SDS011;64851;50.232;20.364;2023-12-22T05:32:13;2.40;;;0.30;;
76117;SDS011;64851;50.232;20.364;2023-12-22T05:34:50;1.50;;;0.60;;
76117;SDS011;64851;50.232;20.364;2023-12-22T05:37:39;1.00;;;0.10;;
76117;SDS011;64851;50.232;20.364;2023-12-22T05:40:22;1.40;;;0.10;;
76117;SDS011;64851;50.232;20.364;2023-12-22T05:43:04;2.80;;;0.20;;
76117;SDS011;64851;50.232;20.364;2023-12-22T05:45:47;2.10;;;0.20;;
76117;SDS011;64851;50.232;20.364;2023-12-22T05:48:28;1.80;;;0.20;;
76117;SDS011;64851;50.232;20.364;2023-12-22T05:51:11;2.60;;;0.30;;
76117;SDS011;64851;50.232;20.364;2023-12-22T05:53:58;3.60;;;0.30;;
76117;SDS011;64851;50.232;20.364;2023-12-22T05:56:33;2.70;;;0.30;;
76117;SDS011;64851;50.232;20.364;2023-12-22T05:59:20;3.90;;;0.60;;
76117;SDS011;64851;50.232;20.364;2023-12-22T06:01:55;3.20;;;0.40;;
76117;SDS011;64851;50.232;20.364;2023-12-22T06:04:43;4.10;;;0.40;;
76117;SDS011;64851;50.232;20.364;2023-12-22T06:07:19;6.00;;;0.70;;
76117;SDS011;64851;50.232;20.364;2023-12-22T06:10:06;3.70;;;0.40;;
76117;SDS011;64851;50.232;20.364;2023-12-22T06:12:44;5.40;;;0.80;;
76117;SDS011;64851;50.232;20.364;2023-12-22T06:15:31;4.40;;;0.60;;
76117;SDS011;64851;50.232;20.364;2023-12-22T06:18:07;4.50;;;0.50;;
76117;SDS011;64851;50.232;20.364;2023-12-22T06:20:57;3.60;;;0.50;;
76117;SDS011;64851;50.232;20.364;2023-12-22T06:23:33;3.30;;;0.40;;
76117;SDS011;64851;50.232;20.364;2023-12-22T06:26:20;5.20;;;0.70;;
76117;SDS011;64851;50.232;20.364;2023-12-22T06:29:08;6.30;;;0.60;;
76117;SDS011;64851;50.232;20.364;2023-12-22T06:32:03;3.70;;;1.00;;
76117;SDS011;64851;50.232;20.364;2023-12-22T06:34:47;4.10;;;0.70;;
76117;SDS011;64851;50.232;20.364;2023-12-22T06:37:27;5.30;;;0.80;;
76117;SDS011;64851;50.232;20.364;2023-12-22T06:40:10;4.40;;;0.80;;
76117;SDS011;64851;50.232;20.364;2023-12-22T06:42:55;4.90;;;0.80;;
76117;SDS011;64851;50.232;20.364;2023-12-22T06:45:37;5.50;;;0.80;;
76117;SDS011;64851;50.232;20.364;2023-12-22T06:48:17;3.50;;;0.80;;
76117;SDS011;64851;50.232;20.364;2023-12-22T06:51:00;3.30;;;0.80;;
76117;SDS011;64851;50.232;20.364;2023-12-22T06:53:47;2.10;;;0.50;;
76117;SDS011;64851;50.232;20.364;2023-12-22T06:56:23;6.90;;;1.00;;
76117;SDS011;64851;50.232;20.364;2023-12-22T06:59:12;5.40;;;0.70;;
76117;SDS011;64851;50.232;20.364;2023-12-22T07:01:51;3.10;;;0.60;;
76117;SDS011;64851;50.232;20.364;2023-12-22T07:08:01;3.00;;;0.70;;
76117;SDS011;64851;50.232;20.364;2023-12-22T07:10:41;3.30;;;0.80;;
76117;SDS011;64851;50.232;20.364;2023-12-22T07:13:23;3.30;;;0.70;;
76117;SDS011;64851;50.232;20.364;2023-12-22T07:16:04;3.30;;;0.70;;
76117;SDS011;64851;50.232;20.364;2023-12-22T07:18:47;7.70;;;1.20;;
76117;SDS011;64851;50.232;20.364;2023-12-22T07:21:27;5.00;;;1.40;;
76117;SDS011;64851;50.232;20.364;2023-12-22T07:24:09;6.10;;;1.00;;
76117;SDS011;64851;50.232;20.364;2023-12-22T07:26:56;4.20;;;1.00;;
76117;SDS011;64851;50.232;20.364;2023-12-22T07:29:31;4.90;;;1.30;;
76117;SDS011;64851;50.232;20.364;2023-12-22T07:32:25;3.10;;;0.70;;
76117;SDS011;64851;50.232;20.364;2023-12-22T07:35:23;5.20;;;1.60;;
76117;SDS011;64851;50.232;20.364;2023-12-22T07:37:59;7.60;;;2.00;;
76117;SDS011;64851;50.232;20.364;2023-12-22T07:40:53;3.40;;;0.60;;
76117;SDS011;64851;50.232;20.364;2023-12-22T07:43:37;3.90;;;0.80;;
76117;SDS011;64851;50.232;20.364;2023-12-22T07:46:35;4.60;;;0.70;;
76117;SDS011;64851;50.232;20.364;2023-12-22T07:49:19;4.90;;;1.10;;
76117;SDS011;64851;50.232;20.364;2023-12-22T07:52:10;6.40;;;1.30;;
76117;SDS011;64851;50.232;20.364;2023-12-22T07:54:48;2.40;;;0.80;;
76117;SDS011;64851;50.232;20.364;2023-12-22T07:57:43;4.00;;;0.70;;
76117;SDS011;64851;50.232;20.364;2023-12-22T08:00:20;4.30;;;0.80;;
76117;SDS011;64851;50.232;20.364;2023-12-22T08:03:08;4.20;;;1.40;;
76117;SDS011;64851;50.232;20.364;2023-12-22T08:05:44;3.20;;;1.20;;
76117;SDS011;64851;50.232;20.364;2023-12-22T08:08:33;6.00;;;1.30;;
76117;SDS011;64851;50.232;20.364;2023-12-22T08:11:08;8.60;;;1.30;;
76117;SDS011;64851;50.232;20.364;2023-12-22T08:14:03;4.50;;;1.00;;
76117;SDS011;64851;50.232;20.364;2023-12-22T08:16:58;4.80;;;1.20;;
76117;SDS011;64851;50.232;20.364;2023-12-22T08:19:36;5.90;;;1.50;;
76117;SDS011;64851;50.232;20.364;2023-12-22T08:22:33;5.70;;;1.00;;
76117;SDS011;64851;50.232;20.364;2023-12-22T08:25:31;4.70;;;1.00;;
76117;SDS011;64851;50.232;20.364;2023-12-22T08:28:14;3.20;;;0.90;;
76117;SDS011;64851;50.232;20.364;2023-12-22T08:31:08;4.50;;;1.30;;
76117;SDS011;64851;50.232;20.364;2023-12-22T08:34:03;4.80;;;1.10;;
76117;SDS011;64851;50.232;20.364;2023-12-22T08:36:46;5.20;;;0.80;;
76117;SDS011;64851;50.232;20.364;2023-12-22T08:39:28;5.50;;;0.90;;
76117;SDS011;64851;50.232;20.364;2023-12-22T08:42:10;2.20;;;0.60;;
76117;SDS011;64851;50.232;20.364;2023-12-22T08:44:57;4.00;;;0.80;;
76117;SDS011;64851;50.232;20.364;2023-12-22T08:47:33;3.90;;;0.70;;
76117;SDS011;64851;50.232;20.364;2023-12-22T08:50:22;4.80;;;0.90;;
76117;SDS011;64851;50.232;20.364;2023-12-22T08:52:57;6.10;;;1.20;;
76117;SDS011;64851;50.232;20.364;2023-12-22T08:55:46;4.80;;;1.20;;
76117;SDS011;64851;50.232;20.364;2023-12-22T08:58:22;4.70;;;1.20;;
76117;SDS011;64851;50.232;20.364;2023-12-22T09:01:16;5.60;;;1.30;;
76117;SDS011;64851;50.232;20.364;2023-12-22T09:03:51;3.60;;;0.90;;
76117;SDS011;64851;50.232;20.364;2023-12-22T09:06:42;3.80;;;1.30;;
76117;SDS011;64851;50.232;20.364;2023-12-22T09:09:17;4.50;;;1.10;;
76117;SDS011;64851;50.232;20.364;2023-12-22T09:12:05;4.70;;;1.30;;
76117;SDS011;64851;50.232;20.364;2023-12-22T09:14:47;4.60;;;1.20;;
76117;SDS011;64851;50.232;20.364;2023-12-22T09:17:28;5.70;;;0.80;;
76117;SDS011;64851;50.232;20.364;2023-12-22T09:20:10;3.80;;;1.10;;
76117;SDS011;64851;50.232;20.364;2023-12-22T09:22:53;5.10;;;1.40;;
76117;SDS011;64851;50.232;20.364;2023-12-22T09:25:35;4.90;;;1.10;;
76117;SDS011;64851;50.232;20.364;2023-12-22T09:28:15;6.20;;;1.10;;
76117;SDS011;64851;50.232;20.364;2023-12-22T09:31:03;5.70;;;1.20;;
76117;SDS011;64851;50.232;20.364;2023-12-22T09:33:58;4.10;;;1.60;;
76117;SDS011;64851;50.232;20.364;2023-12-22T09:36:33;5.00;;;1.10;;
76117;SDS011;64851;50.232;20.364;2023-12-22T09:39:21;4.20;;;1.20;;
76117;SDS011;64851;50.232;20.364;2023-12-22T09:41:57;5.70;;;1.90;;
76117;SDS011;64851;50.232;20.364;2023-12-22T09:44:46;5.70;;;1.00;;
76117;SDS011;64851;50.232;20.364;2023-12-22T09:47:25;5.20;;;1.20;;
76117;SDS011;64851;50.232;20.364;2023-12-22T09:50:16;5.20;;;1.20;;
76117;SDS011;64851;50.232;20.364;2023-12-22T09:52:51;4.10;;;1.00;;
76117;SDS011;64851;50.232;20.364;2023-12-22T09:55:42;2.50;;;0.90;;
76117;SDS011;64851;50.232;20.364;2023-12-22T09:58:20;2.50;;;0.80;;
76117;SDS011;64851;50.232;20.364;2023-12-22T10:01:08;2.90;;;0.80;;
76117;SDS011;64851;50.232;20.364;2023-12-22T10:03:43;3.40;;;0.70;;
76117;SDS011;64851;50.232;20.364;2023-12-22T10:06:41;4.10;;;1.00;;
76117;SDS011;64851;50.232;20.364;2023-12-22T10:09:35;3.50;;;0.50;;
76117;SDS011;64851;50.232;20.364;2023-12-22T10:12:11;2.40;;;0.80;;
76117;SDS011;64851;50.232;20.364;2023-12-22T10:15:00;4.30;;;1.10;;
76117;SDS011;64851;50.232;20.364;2023-12-22T10:17:35;4.70;;;1.20;;
76117;SDS011;64851;50.232;20.364;2023-12-22T10:20:32;5.20;;;1.30;;
76117;SDS011;64851;50.232;20.364;2023-12-22T10:23:07;4.30;;;1.30;;
76117;SDS011;64851;50.232;20.364;2023-12-22T10:26:02;4.30;;;1.10;;
76117;SDS011;64851;50.232;20.364;2023-12-22T10:28:37;4.00;;;1.30;;
76117;SDS011;64851;50.232;20.364;2023-12-22T10:31:25;4.20;;;1.40;;
76117;SDS011;64851;50.232;20.364;2023-12-22T10:34:00;5.60;;;1.30;;
76117;SDS011;64851;50.232;20.364;2023-12-22T10:36:48;4.00;;;1.80;;
76117;SDS011;64851;50.232;20.364;2023-12-22T10:39:30;3.30;;;0.80;;
76117;SDS011;64851;50.232;20.364;2023-12-22T10:42:13;4.80;;;1.00;;
76117;SDS011;64851;50.232;20.364;2023-12-22T10:44:55;4.40;;;1.30;;
76117;SDS011;64851;50.232;20.364;2023-12-22T10:47:37;5.00;;;1.30;;
76117;SDS011;64851;50.232;20.364;2023-12-22T10:50:23;3.80;;;1.10;;
76117;SDS011;64851;50.232;20.364;2023-12-22T10:53:10;3.20;;;0.90;;
76117;SDS011;64851;50.232;20.364;2023-12-22T10:55:55;2.60;;;0.80;;
76117;SDS011;64851;50.232;20.364;2023-12-22T10:58:51;2.20;;;0.80;;
76117;SDS011;64851;50.232;20.364;2023-12-22T11:01:35;5.50;;;1.40;;
76117;SDS011;64851;50.232;20.364;2023-12-22T11:04:18;5.90;;;1.40;;
76117;SDS011;64851;50.232;20.364;2023-12-22T11:07:02;4.30;;;1.00;;
76117;SDS011;64851;50.232;20.364;2023-12-22T11:09:43;5.70;;;1.30;;
76117;SDS011;64851;50.232;20.364;2023-12-22T11:12:26;3.20;;;1.10;;
76117;SDS011;64851;50.232;20.364;2023-12-22T11:15:09;1.70;;;0.50;;
76117;SDS011;64851;50.232;20.364;2023-12-22T11:17:51;3.00;;;0.80;;
76117;SDS011;64851;50.232;20.364;2023-12-22T11:20:40;5.00;;;1.10;;
76117;SDS011;64851;50.232;20.364;2023-12-22T11:23:15;6.80;;;2.40;;
76117;SDS011;64851;50.232;20.364;2023-12-22T11:26:06;8.10;;;1.20;;
76117;SDS011;64851;50.232;20.364;2023-12-22T11:28:46;3.10;;;1.00;;
76117;SDS011;64851;50.232;20.364;2023-12-22T11:31:42;4.10;;;0.90;;
76117;SDS011;64851;50.232;20.364;2023-12-22T11:34:40;5.60;;;1.70;;
76117;SDS011;64851;50.232;20.364;2023-12-22T11:37:17;2.70;;;0.50;;
76117;SDS011;64851;50.232;20.364;2023-12-22T11:40:12;1.30;;;0.50;;
76117;SDS011;64851;50.232;20.364;2023-12-22T11:43:07;5.10;;;1.60;;
76117;SDS011;64851;50.232;20.364;2023-12-22T11:45:43;3.60;;;0.80;;
76117;SDS011;64851;50.232;20.364;2023-12-22T11:48:33;3.80;;;0.70;;
76117;SDS011;64851;50.232;20.364;2023-12-22T11:51:12;4.80;;;0.90;;
76117;SDS011;64851;50.232;20.364;2023-12-22T11:56:36;2.60;;;0.80;;
76117;SDS011;64851;50.232;20.364;2023-12-22T11:59:25;2.30;;;0.80;;
76117;SDS011;64851;50.232;20.364;2023-12-22T12:02:02;2.10;;;0.90;;
76117;SDS011;64851;50.232;20.364;2023-12-22T12:04:57;3.40;;;0.80;;
76117;SDS011;64851;50.232;20.364;2023-12-22T12:07:45;5.70;;;1.50;;
76117;SDS011;64851;50.232;20.364;2023-12-22T12:10:51;4.40;;;1.20;;
76117;SDS011;64851;50.232;20.364;2023-12-22T12:13:54;4.00;;;1.30;;
76117;SDS011;64851;50.232;20.364;2023-12-22T12:17:07;4.20;;;1.10;;
76117;SDS011;64851;50.232;20.364;2023-12-22T12:19:58;3.10;;;1.30;;
76117;SDS011;64851;50.232;20.364;2023-12-22T12:22:34;3.60;;;1.10;;
76117;SDS011;64851;50.232;20.364;2023-12-22T12:25:24;15.90;;;3.70;;
76117;SDS011;64851;50.232;20.364;2023-12-22T12:28:07;11.50;;;3.20;;
76117;SDS011;64851;50.232;20.364;2023-12-22T12:31:06;21.90;;;12.30;;
76117;SDS011;64851;50.232;20.364;2023-12-22T12:33:50;40.00;;;11.80;;
76117;SDS011;64851;50.232;20.364;2023-12-22T12:36:47;22.50;;;6.40;;
76117;SDS011;64851;50.232;20.364;2023-12-22T12:39:23;4.80;;;1.10;;
76117;SDS011;64851;50.232;20.364;2023-12-22T12:42:12;12.10;;;2.30;;
76117;SDS011;64851;50.232;20.364;2023-12-22T12:48:00;6.90;;;1.20;;
76117;SDS011;64851;50.232;20.364;2023-12-22T12:50:42;9.10;;;2.10;;
76117;SDS011;64851;50.232;20.364;2023-12-22T12:53:31;3.10;;;0.80;;
76117;SDS011;64851;50.232;20.364;2023-12-22T12:56:08;14.70;;;4.00;;
76117;SDS011;64851;50.232;20.364;2023-12-22T12:58:57;10.20;;;2.20;;
76117;SDS011;64851;50.232;20.364;2023-12-22T13:01:37;2.80;;;0.70;;
76117;SDS011;64851;50.232;20.364;2023-12-22T13:04:38;8.10;;;2.50;;
76117;SDS011;64851;50.232;20.364;2023-12-22T13:07:13;1.80;;;0.60;;
76117;SDS011;64851;50.232;20.364;2023-12-22T13:10:24;6.90;;;2.40;;
76117;SDS011;64851;50.232;20.364;2023-12-22T13:13:04;2.00;;;0.80;;
76117;SDS011;64851;50.232;20.364;2023-12-22T13:15:52;2.30;;;0.90;;
76117;SDS011;64851;50.232;20.364;2023-12-22T13:18:26;5.00;;;1.60;;
76117;SDS011;64851;50.232;20.364;2023-12-22T13:21:14;1.90;;;0.70;;
76117;SDS011;64851;50.232;20.364;2023-12-22T13:27:04;4.50;;;1.40;;
76117;SDS011;64851;50.232;20.364;2023-12-22T13:29:42;3.20;;;0.80;;
76117;SDS011;64851;50.232;20.364;2023-12-22T13:32:34;3.30;;;1.40;;
76117;SDS011;64851;50.232;20.364;2023-12-22T13:35:09;2.60;;;0.90;;
76117;SDS011;64851;50.232;20.364;2023-12-22T13:37:57;3.20;;;0.90;;
76117;SDS011;64851;50.232;20.364;2023-12-22T13:40:33;3.20;;;0.90;;
76117;SDS011;64851;50.232;20.364;2023-12-22T13:43:21;2.40;;;0.60;;
76117;SDS011;64851;50.232;20.364;2023-12-22T13:46:03;3.30;;;0.70;;
76117;SDS011;64851;50.232;20.364;2023-12-22T13:48:59;4.00;;;0.80;;
76117;SDS011;64851;50.232;20.364;2023-12-22T13:51:54;3.80;;;0.80;;
76117;SDS011;64851;50.232;20.364;2023-12-22T13:54:33;3.80;;;1.00;;
76117;SDS011;64851;50.232;20.364;2023-12-22T13:57:22;3.50;;;1.10;;
76117;SDS011;64851;50.232;20.364;2023-12-22T13:59:57;2.30;;;0.50;;
76117;SDS011;64851;50.232;20.364;2023-12-22T14:02:45;2.20;;;1.20;;
76117;SDS011;64851;50.232;20.364;2023-12-22T14:05:23;3.40;;;1.30;;
76117;SDS011;64851;50.232;20.364;2023-12-22T14:08:15;4.20;;;1.30;;
76117;SDS011;64851;50.232;20.364;2023-12-22T14:10:51;2.40;;;0.90;;
76117;SDS011;64851;50.232;20.364;2023-12-22T14:13:41;4.20;;;1.20;;
76117;SDS011;64851;50.232;20.364;2023-12-22T14:16:17;10.10;;;1.90;;
76117;SDS011;64851;50.232;20.364;2023-12-22T14:19:05;4.00;;;1.40;;
76117;SDS011;64851;50.232;20.364;2023-12-22T14:21:41;4.10;;;1.90;;
76117;SDS011;64851;50.232;20.364;2023-12-22T14:24:35;4.30;;;1.30;;
76117;SDS011;64851;50.232;20.364;2023-12-22T14:27:30;5.10;;;2.40;;
76117;SDS011;64851;50.232;20.364;2023-12-22T14:30:07;6.10;;;1.80;;
76117;SDS011;64851;50.232;20.364;2023-12-22T14:33:01;5.00;;;1.70;;
76117;SDS011;64851;50.232;20.364;2023-12-22T14:35:36;7.00;;;2.10;;
76117;SDS011;64851;50.232;20.364;2023-12-22T14:38:27;7.00;;;2.60;;
76117;SDS011;64851;50.232;20.364;2023-12-22T14:41:03;6.70;;;2.60;;
76117;SDS011;64851;50.232;20.364;2023-12-22T14:44:00;10.30;;;3.70;;
76117;SDS011;64851;50.232;20.364;2023-12-22T14:46:55;7.70;;;2.00;;
76117;SDS011;64851;50.232;20.364;2023-12-22T14:49:38;6.40;;;1.60;;
76117;SDS011;64851;50.232;20.364;2023-12-22T14:52:26;6.90;;;1.90;;
76117;SDS011;64851;50.232;20.364;2023-12-22T14:55:01;7.40;;;1.40;;
76117;SDS011;64851;50.232;20.364;2023-12-22T14:57:49;7.40;;;1.40;;
76117;SDS011;64851;50.232;20.364;2023-12-22T15:00:31;4.00;;;1.10;;
76117;SDS011;64851;50.232;20.364;2023-12-22T15:03:19;6.40;;;1.50;;
76117;SDS011;64851;50.232;20.364;2023-12-22T15:05:54;6.30;;;1.00;;
76117;SDS011;64851;50.232;20.364;2023-12-22T15:08:42;6.00;;;1.60;;
76117;SDS011;64851;50.232;20.364;2023-12-22T15:11:24;4.80;;;1.50;;
76117;SDS011;64851;50.232;20.364;2023-12-22T15:14:08;5.10;;;1.30;;
76117;SDS011;64851;50.232;20.364;2023-12-22T15:16:49;3.40;;;0.80;;
76117;SDS011;64851;50.232;20.364;2023-12-22T15:19:31;3.00;;;1.10;;
76117;SDS011;64851;50.232;20.364;2023-12-22T15:22:12;4.00;;;1.00;;
76117;SDS011;64851;50.232;20.364;2023-12-22T15:24:53;3.80;;;1.10;;
76117;SDS011;64851;50.232;20.364;2023-12-22T15:27:34;3.90;;;0.80;;
76117;SDS011;64851;50.232;20.364;2023-12-22T15:30:23;4.60;;;1.30;;
76117;SDS011;64851;50.232;20.364;2023-12-22T15:33:18;4.90;;;1.20;;
76117;SDS011;64851;50.232;20.364;2023-12-22T15:35:54;8.60;;;1.90;;
76117;SDS011;64851;50.232;20.364;2023-12-22T15:38:43;5.00;;;1.20;;
76117;SDS011;64851;50.232;20.364;2023-12-22T15:41:19;7.20;;;1.30;;
76117;SDS011;64851;50.232;20.364;2023-12-22T15:44:15;4.60;;;1.60;;
76117;SDS011;64851;50.232;20.364;2023-12-22T15:46:57;6.80;;;1.80;;
76117;SDS011;64851;50.232;20.364;2023-12-22T15:49:48;4.70;;;1.60;;
76117;SDS011;64851;50.232;20.364;2023-12-22T15:52:24;6.50;;;2.30;;
76117;SDS011;64851;50.232;20.364;2023-12-22T15:55:12;7.10;;;2.50;;
76117;SDS011;64851;50.232;20.364;2023-12-22T15:57:48;3.20;;;0.90;;
76117;SDS011;64851;50.232;20.364;2023-12-22T16:00:43;4.40;;;0.90;;
76117;SDS011;64851;50.232;20.364;2023-12-22T16:03:38;4.40;;;1.10;;
76117;SDS011;64851;50.232;20.364;2023-12-22T16:06:38;4.30;;;0.90;;
76117;SDS011;64851;50.232;20.364;2023-12-22T16:09:13;6.20;;;1.00;;
76117;SDS011;64851;50.232;20.364;2023-12-22T16:12:08;4.00;;;0.90;;
76117;SDS011;64851;50.232;20.364;2023-12-22T16:14:44;5.10;;;1.60;;
76117;SDS011;64851;50.232;20.364;2023-12-22T16:17:41;3.50;;;1.00;;
76117;SDS011;64851;50.232;20.364;2023-12-22T16:20:36;12.00;;;2.70;;
76117;SDS011;64851;50.232;20.364;2023-12-22T16:23:31;5.60;;;1.80;;
76117;SDS011;64851;50.232;20.364;2023-12-22T16:26:06;3.80;;;0.90;;
76117;SDS011;64851;50.232;20.364;2023-12-22T16:29:01;3.40;;;0.90;;